Hovedside
METAR-TAF:

METAR-TAF

Lufthavner :

Kristiansund lufthavn. Kvernberget

Kristiansund, Norge

breddegrad: 63-07N, lengdegrad: 007-50E, høyde over havet: 6 m

Gjeldene værobservasjon

Denne rapporten ble laget for 35 minutter siden, klokken 19:20 UTC
Vind 2 kt fra Vest
Temperatur 14°C
Luftfuktighet 94%
Trykk 1001 hPa
Sikt 10 km eller mer
Få skyer i en høyde av 500 ft
Spredte skyer i en høyde av 2900 ft
Brutte skyer i en høyde av 6300 ft
lett regn

METAR: ENKB 161920Z 28002KT 9999 -RA FEW005 SCT029 BKN063 14/13 Q1001 RMK WIND 745FT 04006KT

Tid: 21:55 (19:55 UTC)

Varsel

Denne rapporten ble laget for 5 timer og 55 minutter siden, klokken 14:00 UTC
Varsel gyldig fra 16. klokken 15 UTC til 16. klokken 21 UTC
Vind 5 kt fra Øst-nordøst
Sikt 10 km eller mer
Få skyer i en høyde av 1500 ft
Brutte skyer i en høyde av 6500 ft

TAF: ENKB 161400Z 1615/1621 07005KT 9999 FEW015 BKN065

Værobservasjoner og værvarsel for over 4000 flyplasser (METAR- og TAF-rapporter).

Tilgjengelige stasjoner er representert av de røde og gule prikkene på kartet.

Hold musepekeren over prikken for å se navnet på stasjonen.

Klikk så for å se værobservasjoner og -varsler.

For å forandre kartet kan du klikke på den grønne knappen med svart kryss for å zoome inn, på den grønne knappen med strek for å zoome ut, eller på de grønne pilene for å se tilstøtende kart.


METAR-TAF: